Time,TemperatureF,DewpointF,PressureIn,WindDirection,WindDirectionDegrees,WindSpeedMPH,WindSpeedGustMPH,Humidity,HourlyPrecipIn,Conditions,Clouds,dailyrainin,SoftwareType,DateUTC
2013-08-14 00:00:00,80.9,77.4,29.99,WNW,292,0.0,2.0,89,0.00,,---,0.00,VWS V14.01,2013-08-14 04:00:00,
2013-08-14 00:30:00,81.3,77.4,29.98,WNW,292,0.0,2.0,88,0.00,,---,0.00,VWS V14.01,2013-08-14 04:30:00,
2013-08-14 01:00:00,81.8,77.2,29.97,WNW,292,0.0,2.0,86,0.00,,---,0.00,VWS V14.01,2013-08-14 05:00:00,
2013-08-14 01:30:00,81.3,78.1,29.97,WNW,292,0.0,1.0,90,0.00,,---,0.00,VWS V14.01,2013-08-14 05:30:00,
2013-08-14 02:00:00,79.8,77.3,29.96,WNW,292,0.0,0.0,92,0.00,,---,0.00,VWS V14.01,2013-08-14 06:00:00,
2013-08-14 02:30:00,78.8,76.9,29.95,WNW,292,0.0,0.0,94,0.00,,---,0.00,VWS V14.01,2013-08-14 06:30:00,
2013-08-14 03:00:00,77.8,76.6,29.94,WNW,292,0.0,0.0,96,0.00,,---,0.00,VWS V14.01,2013-08-14 07:00:00,
2013-08-14 03:30:00,77.3,76.1,29.94,WNW,292,0.0,0.0,96,0.00,,---,0.00,VWS V14.01,2013-08-14 07:30:00,
2013-08-14 04:00:00,76.7,75.8,29.93,WNW,292,0.0,0.0,97,0.00,,---,0.00,VWS V14.01,2013-08-14 08:00:00,
2013-08-14 04:30:00,76.2,75.3,29.93,WNW,292,0.0,0.0,97,0.00,,---,0.00,VWS V14.01,2013-08-14 08:30:00,
2013-08-14 05:00:00,75.9,75.0,29.93,WNW,292,0.0,0.0,97,0.00,,---,0.00,VWS V14.01,2013-08-14 09:00:00,
2013-08-14 05:30:00,75.7,75.1,29.93,WNW,292,0.0,0.0,98,0.00,,---,0.00,VWS V14.01,2013-08-14 09:30:00,
2013-08-14 06:00:00,75.5,74.9,29.92,WNW,292,0.0,0.0,98,0.00,,---,0.00,VWS V14.01,2013-08-14 10:00:00,
2013-08-14 06:30:00,75.3,74.7,29.93,WNW,292,0.0,0.0,98,0.00,,---,0.00,VWS V14.01,2013-08-14 10:30:00,
2013-08-14 07:00:00,75.1,74.8,29.93,WNW,292,0.0,0.0,99,0.00,,---,0.00,VWS V14.01,2013-08-14 11:00:00,
2013-08-14 07:30:00,75.9,75.9,29.94,WNW,292,0.0,0.0,100,0.00,,---,0.00,VWS V14.01,2013-08-14 11:30:00,
2013-08-14 08:00:00,77.7,76.8,29.95,WNW,292,0.0,4.0,97,0.00,,---,0.00,VWS V14.01,2013-08-14 12:00:00,
2013-08-14 08:30:00,79.9,78.0,29.96,WNW,292,1.0,5.0,94,0.00,,---,0.00,VWS V14.01,2013-08-14 12:30:00,
2013-08-14 09:00:00,77.7,76.8,29.95,WNW,292,0.0,4.0,97,0.00,,---,0.00,VWS V14.01,2013-08-14 13:00:00,
2013-08-14 09:06:00,82.9,79.3,29.95,WNW,289,0.0,1.0,89,0.00,,---,0.00,VWS V14.01,2013-08-14 13:06:00,
2013-08-14 09:08:00,83.0,79.4,29.95,WNW,289,1.0,2.0,89,0.00,,---,0.00,VWS V14.01,2013-08-14 13:08:00,
2013-08-14 09:09:00,83.1,79.5,29.96,WNW,289,4.0,4.0,89,0.00,,---,0.00,VWS V14.01,2013-08-14 13:09:00,
2013-08-14 09:14:00,83.4,79.5,29.96,WNW,289,2.0,4.0,88,0.00,,---,0.00,VWS V14.01,2013-08-14 13:14:00,
2013-08-14 09:19:00,83.7,79.4,29.96,WNW,289,2.0,4.0,87,0.00,,---,0.00,VWS V14.01,2013-08-14 13:19:00,
2013-08-14 09:24:00,83.8,79.2,29.96,WNW,289,2.0,4.0,86,0.00,,---,0.00,VWS V14.01,2013-08-14 13:24:00,
2013-08-14 09:29:00,84.0,79.4,29.96,WNW,289,4.0,4.0,86,0.00,,---,0.00,VWS V14.01,2013-08-14 13:29:00,
2013-08-14 09:30:00,84.1,79.1,29.96,WNW,289,2.0,4.0,85,0.00,,---,0.00,VWS V14.01,2013-08-14 13:30:00,
2013-08-14 09:34:00,84.2,79.6,29.96,WNW,289,2.0,4.0,86,0.00,,---,0.00,VWS V14.01,2013-08-14 13:34:00,
2013-08-14 09:39:00,84.5,79.5,29.96,West,264,2.0,6.0,85,0.00,,---,0.00,VWS V14.01,2013-08-14 13:39:00,
2013-08-14 09:44:00,84.8,79.8,29.95,West,264,2.0,6.0,85,0.00,,---,0.00,VWS V14.01,2013-08-14 13:44:00,
2013-08-14 09:54:00,85.0,78.9,29.95,West,273,4.0,4.0,82,0.00,,---,0.00,VWS V14.01,2013-08-14 13:54:00,
2013-08-14 09:59:00,85.2,79.1,29.95,WNW,283,6.0,7.0,82,0.00,,---,0.00,VWS V14.01,2013-08-14 13:59:00,
2013-08-14 10:00:00,85.2,79.1,29.95,WNW,283,4.0,7.0,82,0.00,,---,0.00,VWS V14.01,2013-08-14 14:00:00,
2013-08-14 10:04:00,85.5,80.1,29.95,WNW,285,4.0,5.0,84,0.00,,---,0.00,VWS V14.01,2013-08-14 14:04:00,
2013-08-14 10:09:00,86.0,79.9,29.95,WNW,284,3.0,6.0,82,0.00,,---,0.00,VWS V14.01,2013-08-14 14:09:00,
2013-08-14 10:14:00,86.3,79.4,29.95,West,264,3.0,6.0,80,0.00,,---,0.00,VWS V14.01,2013-08-14 14:14:00,
2013-08-14 10:19:00,86.5,79.6,29.95,West,274,4.0,6.0,80,0.00,,---,0.00,VWS V14.01,2013-08-14 14:19:00,
2013-08-14 10:24:00,86.5,78.8,29.96,WNW,298,3.0,7.0,78,0.00,,---,0.00,VWS V14.01,2013-08-14 14:24:00,
2013-08-14 10:29:00,86.1,78.8,29.96,WNW,298,3.0,7.0,79,0.00,,---,0.00,VWS V14.01,2013-08-14 14:29:00,
2013-08-14 10:30:00,86.1,78.8,29.96,WNW,298,3.0,7.0,79,0.00,,---,0.00,VWS V14.01,2013-08-14 14:30:00,
2013-08-14 10:34:00,86.1,78.8,29.96,WNW,299,1.0,6.0,79,0.00,,---,0.00,VWS V14.01,2013-08-14 14:34:00,
2013-08-14 10:40:00,86.8,78.7,29.96,WNW,303,2.0,6.0,77,0.00,,---,0.00,VWS V14.01,2013-08-14 14:40:00,
2013-08-14 10:45:00,87.2,78.7,29.96,West,266,1.0,6.0,76,0.00,,---,0.00,VWS V14.01,2013-08-14 14:45:00,
2013-08-14 10:50:00,87.4,78.5,29.96,West,271,1.0,6.0,75,0.00,,---,0.00,VWS V14.01,2013-08-14 14:50:00,
2013-08-14 10:55:00,87.5,78.2,29.96,West,275,4.0,6.0,74,0.00,,---,0.00,VWS V14.01,2013-08-14 14:55:00,
2013-08-14 11:00:00,87.3,78.4,29.96,West,275,4.0,6.0,75,0.00,,---,0.00,VWS V14.01,2013-08-14 15:00:00,
2013-08-14 11:05:00,87.7,78.4,29.96,WNW,300,7.0,7.0,74,0.00,,---,0.00,VWS V14.01,2013-08-14 15:05:00,
2013-08-14 11:10:00,87.9,78.6,29.96,West,273,3.0,8.0,74,0.00,,---,0.00,VWS V14.01,2013-08-14 15:10:00,
2013-08-14 11:15:00,87.9,79.0,29.96,West,273,1.0,8.0,75,0.00,,---,0.00,VWS V14.01,2013-08-14 15:15:00,
2013-08-14 11:20:00,88.3,77.7,29.96,West,267,4.0,8.0,71,0.00,,---,0.00,VWS V14.01,2013-08-14 15:20:00,
2013-08-14 11:25:00,87.9,77.8,29.96,West,267,0.0,8.0,72,0.00,,---,0.00,VWS V14.01,2013-08-14 15:25:00,
2013-08-14 11:30:00,88.4,78.7,29.96,West,259,4.0,5.0,73,0.00,,---,0.00,VWS V14.01,2013-08-14 15:30:00,
2013-08-14 11:36:00,88.8,78.6,29.96,West,270,2.0,5.0,72,0.00,,---,0.00,VWS V14.01,2013-08-14 15:36:00,
2013-08-14 11:41:00,89.1,79.7,29.96,WSW,240,2.0,5.0,74,0.00,,---,0.00,VWS V14.01,2013-08-14 15:41:00,
2013-08-14 11:46:00,89.5,78.4,29.95,WSW,242,3.0,5.0,70,0.00,,---,0.00,VWS V14.01,2013-08-14 15:46:00,
2013-08-14 11:51:00,89.3,78.7,29.96,WSW,257,2.0,5.0,71,0.00,,---,0.00,VWS V14.01,2013-08-14 15:51:00,
2013-08-14 11:56:00,89.5,77.6,29.95,WSW,249,3.0,6.0,68,0.00,,---,0.00,VWS V14.01,2013-08-14 15:56:00,
2013-08-14 12:00:00,89.7,78.2,29.95,West,276,5.0,6.0,69,0.00,,---,0.00,VWS V14.01,2013-08-14 16:00:00,
2013-08-14 12:01:00,89.7,78.2,29.95,West,277,3.0,5.0,69,0.00,,---,0.00,VWS V14.01,2013-08-14 16:01:00,
2013-08-14 12:06:00,89.7,78.6,29.95,West,271,1.0,5.0,70,0.00,,---,0.00,VWS V14.01,2013-08-14 16:06:00,
2013-08-14 12:11:00,90.0,78.5,29.95,WNW,292,3.0,7.0,69,0.00,,---,0.00,VWS V14.01,2013-08-14 16:11:00,
2013-08-14 12:16:00,89.9,79.2,29.95,West,279,3.0,7.0,71,0.00,,---,0.00,VWS V14.01,2013-08-14 16:16:00,
2013-08-14 12:21:00,90.4,78.8,29.95,West,269,3.0,7.0,69,0.00,,---,0.00,VWS V14.01,2013-08-14 16:21:00,
2013-08-14 12:26:00,90.8,78.3,29.95,SW,216,2.0,7.0,67,0.00,,---,0.00,VWS V14.01,2013-08-14 16:26:00,
2013-08-14 12:30:00,91.0,79.0,29.94,WSW,250,2.0,7.0,68,0.00,,---,0.00,VWS V14.01,2013-08-14 16:30:00,
2013-08-14 12:31:00,90.9,77.5,29.94,WSW,247,0.0,4.0,65,0.00,,---,0.00,VWS V14.01,2013-08-14 16:31:00,
2013-08-14 12:36:00,91.2,78.7,29.94,West,269,6.0,6.0,67,0.00,,---,0.00,VWS V14.01,2013-08-14 16:36:00,
2013-08-14 12:41:00,90.6,77.7,29.94,WNW,297,5.0,6.0,66,0.00,,---,0.00,VWS V14.01,2013-08-14 16:41:00,
2013-08-14 12:47:00,90.8,78.3,29.94,West,261,3.0,6.0,67,0.00,,---,0.00,VWS V14.01,2013-08-14 16:47:00,
2013-08-14 12:52:00,90.9,78.4,29.94,WSW,241,2.0,6.0,67,0.00,,---,0.00,VWS V14.01,2013-08-14 16:52:00,
2013-08-14 12:57:00,91.3,78.8,29.93,West,266,2.0,6.0,67,0.00,,---,0.00,VWS V14.01,2013-08-14 16:57:00,
2013-08-14 13:00:00,91.3,78.3,29.93,WSW,244,3.0,6.0,66,0.00,,---,0.00,VWS V14.01,2013-08-14 17:00:00,
2013-08-14 13:02:00,91.2,77.8,29.93,West,265,3.0,6.0,65,0.00,,---,0.00,VWS V14.01,2013-08-14 17:02:00,
2013-08-14 13:07:00,91.3,78.3,29.93,West,268,4.0,6.0,66,0.00,,---,0.00,VWS V14.01,2013-08-14 17:07:00,
2013-08-14 13:12:00,91.7,77.8,29.93,WSW,241,1.0,6.0,64,0.00,,---,0.00,VWS V14.01,2013-08-14 17:12:00,
2013-08-14 13:17:00,92.1,77.7,29.93,WSW,239,1.0,6.0,63,0.00,,---,0.00,VWS V14.01,2013-08-14 17:17:00,
2013-08-14 13:22:00,92.3,78.4,29.93,West,263,1.0,6.0,64,0.00,,---,0.00,VWS V14.01,2013-08-14 17:22:00,
2013-08-14 13:28:00,92.2,78.3,29.93,SW,227,4.0,6.0,64,0.00,,---,0.00,VWS V14.01,2013-08-14 17:28:00,
2013-08-14 13:30:00,92.1,78.2,29.93,SW,221,2.0,6.0,64,0.00,,---,0.00,VWS V14.01,2013-08-14 17:30:00,
2013-08-14 13:33:00,92.1,78.7,29.93,WSW,238,3.0,5.0,65,0.00,,---,0.00,VWS V14.01,2013-08-14 17:33:00,
2013-08-14 13:38:00,92.3,78.8,29.92,SW,225,4.0,5.0,65,0.00,,---,0.00,VWS V14.01,2013-08-14 17:38:00,
2013-08-14 13:43:00,93.0,79.0,29.92,WSW,250,1.0,5.0,64,0.00,,---,0.00,VWS V14.01,2013-08-14 17:43:00,
2013-08-14 13:48:00,92.7,77.8,29.92,South,175,7.0,7.0,62,0.00,,---,0.00,VWS V14.01,2013-08-14 17:48:00,
2013-08-14 13:53:00,92.6,78.2,29.92,SW,222,1.0,7.0,63,0.00,,---,0.00,VWS V14.01,2013-08-14 17:53:00,
2013-08-14 13:58:00,92.8,79.3,29.92,WSW,241,3.0,7.0,65,0.00,,---,0.00,VWS V14.01,2013-08-14 17:58:00,
2013-08-14 14:00:00,92.8,77.9,29.92,West,259,1.0,8.0,62,0.00,,---,0.00,VWS V14.01,2013-08-14 18:00:00,
2013-08-14 14:03:00,93.0,78.1,29.92,SW,236,0.0,4.0,62,0.00,,---,0.00,VWS V14.01,2013-08-14 18:03:00,
2013-08-14 14:08:00,93.5,79.0,29.92,SW,215,3.0,6.0,63,0.00,,---,0.00,VWS V14.01,2013-08-14 18:08:00,
2013-08-14 14:14:00,93.2,78.2,29.92,WSW,254,4.0,6.0,62,0.00,,---,0.00,VWS V14.01,2013-08-14 18:14:00,
2013-08-14 14:19:00,92.9,78.9,29.92,WSW,249,4.0,6.0,64,0.00,,---,0.00,VWS V14.01,2013-08-14 18:19:00,
2013-08-14 14:25:00,92.5,78.6,29.92,WNW,283,2.0,6.0,64,0.00,,---,0.00,VWS V14.01,2013-08-14 18:25:00,
2013-08-14 14:30:00,91.8,77.9,29.92,West,270,3.0,5.0,64,0.00,,---,0.00,VWS V14.01,2013-08-14 18:30:00,
2013-08-14 14:35:00,92.0,78.6,29.92,West,264,5.0,6.0,65,0.00,,---,0.00,VWS V14.01,2013-08-14 18:35:00,
2013-08-14 14:40:00,92.6,78.2,29.91,WSW,242,2.0,6.0,63,0.00,,---,0.00,VWS V14.01,2013-08-14 18:40:00,
2013-08-14 14:46:00,93.0,78.1,29.91,WNW,294,6.0,7.0,62,0.00,,---,0.00,VWS V14.01,2013-08-14 18:46:00,
2013-08-14 14:51:00,92.8,77.9,29.90,West,268,2.0,7.0,62,0.00,,---,0.00,VWS V14.01,2013-08-14 18:51:00,
2013-08-14 14:56:00,93.3,79.3,29.90,West,263,3.0,7.0,64,0.00,,---,0.00,VWS V14.01,2013-08-14 18:56:00,
2013-08-14 15:00:00,93.6,78.1,29.90,WNW,299,2.0,7.0,61,0.00,,---,0.00,VWS V14.01,2013-08-14 19:00:00,
2013-08-14 15:02:00,93.3,78.3,29.89,WNW,299,3.0,3.0,62,0.00,,---,0.00,VWS V14.01,2013-08-14 19:02:00,
2013-08-14 15:07:00,92.6,78.2,29.89,WNW,299,0.0,4.0,63,0.00,,---,0.00,VWS V14.01,2013-08-14 19:07:00,
2013-08-14 15:12:00,92.7,78.3,29.89,WNW,300,2.0,5.0,63,0.00,,---,0.00,VWS V14.01,2013-08-14 19:12:00,
2013-08-14 15:17:00,93.1,78.6,29.89,WNW,300,0.0,5.0,63,0.00,,---,0.00,VWS V14.01,2013-08-14 19:17:00,
2013-08-14 15:22:00,93.9,77.9,29.88,WNW,290,1.0,5.0,60,0.00,,---,0.00,VWS V14.01,2013-08-14 19:22:00,
2013-08-14 15:28:00,94.2,78.7,29.88,NW,308,2.0,5.0,61,0.00,,---,0.00,VWS V14.01,2013-08-14 19:28:00,
2013-08-14 15:30:00,94.5,78.5,29.88,NW,316,3.0,5.0,60,0.00,,---,0.00,VWS V14.01,2013-08-14 19:30:00,
2013-08-14 15:33:00,94.6,77.5,29.88,NW,305,0.0,4.0,58,0.00,,---,0.00,VWS V14.01,2013-08-14 19:33:00,
2013-08-14 15:38:00,94.5,78.0,29.87,West,278,4.0,6.0,59,0.00,,---,0.00,VWS V14.01,2013-08-14 19:38:00,
2013-08-14 15:43:00,94.5,78.0,29.87,West,276,3.0,6.0,59,0.00,,---,0.00,VWS V14.01,2013-08-14 19:43:00,
2013-08-14 15:48:00,93.4,75.4,29.87,West,268,2.0,9.0,56,0.00,,---,0.00,VWS V14.01,2013-08-14 19:48:00,
2013-08-14 15:53:00,93.0,75.5,29.88,WNW,298,3.0,9.0,57,0.00,,---,0.00,VWS V14.01,2013-08-14 19:53:00,
2013-08-14 15:59:00,92.8,75.9,29.88,WNW,297,3.0,9.0,58,0.00,,---,0.00,VWS V14.01,2013-08-14 19:59:00,
2013-08-14 16:00:00,92.7,75.8,29.88,WNW,292,2.0,9.0,58,0.00,,---,0.00,VWS V14.01,2013-08-14 20:00:00,
2013-08-14 16:04:00,92.5,75.1,29.88,West,269,6.0,6.0,57,0.00,,---,0.00,VWS V14.01,2013-08-14 20:04:00,
2013-08-14 16:09:00,92.0,75.1,29.87,WNW,288,2.0,6.0,58,0.00,,---,0.00,VWS V14.01,2013-08-14 20:09:00,
2013-08-14 16:14:00,91.9,75.5,29.88,West,273,3.0,6.0,59,0.00,,---,0.00,VWS V14.01,2013-08-14 20:14:00,
2013-08-14 16:21:00,91.7,76.8,29.88,WSW,244,1.0,6.0,62,0.00,,---,0.00,VWS V14.01,2013-08-14 20:21:00,
2013-08-14 16:26:00,89.6,76.3,29.88,SSW,205,8.0,11.0,65,0.00,,---,0.00,VWS V14.01,2013-08-14 20:26:00,
2013-08-14 16:30:00,87.3,75.4,29.89,South,182,13.0,17.0,68,0.00,,---,0.00,VWS V14.01,2013-08-14 20:30:00,
2013-08-14 16:32:00,85.7,75.2,29.89,South,189,10.0,13.0,71,0.00,,---,0.00,VWS V14.01,2013-08-14 20:32:00,
2013-08-14 16:37:00,83.5,73.5,29.88,WSW,249,2.0,15.0,72,0.00,,---,0.00,VWS V14.01,2013-08-14 20:37:00,
2013-08-14 16:42:00,82.8,74.1,29.88,SSW,193,1.0,15.0,75,0.00,,---,0.00,VWS V14.01,2013-08-14 20:42:00,
2013-08-14 16:47:00,82.6,74.7,29.88,South,175,6.0,15.0,77,0.00,,---,0.00,VWS V14.01,2013-08-14 20:47:00,
2013-08-14 16:52:00,82.2,74.7,29.88,SSW,208,0.0,15.0,78,0.00,,---,0.00,VWS V14.01,2013-08-14 20:52:00,
2013-08-14 16:58:00,81.9,74.8,29.88,SW,224,0.0,15.0,79,0.00,,---,0.00,VWS V14.01,2013-08-14 20:58:00,
2013-08-14 17:00:00,81.8,74.7,29.88,SW,235,0.0,15.0,79,0.00,,---,0.00,VWS V14.01,2013-08-14 21:00:00,
2013-08-14 17:03:00,81.8,74.7,29.88,SW,235,2.0,3.0,79,0.00,,---,0.00,VWS V14.01,2013-08-14 21:03:00,
2013-08-14 17:08:00,81.9,74.8,29.88,West,261,3.0,4.0,79,0.00,,---,0.00,VWS V14.01,2013-08-14 21:08:00,
2013-08-14 17:13:00,81.8,75.0,29.89,NW,306,4.0,6.0,80,0.00,,---,0.00,VWS V14.01,2013-08-14 21:13:00,
2013-08-14 17:18:00,82.0,76.3,29.90,SW,223,5.0,10.0,83,0.00,,---,0.00,VWS V14.01,2013-08-14 21:18:00,
2013-08-14 17:23:00,81.5,75.5,29.90,West,267,7.0,10.0,82,0.00,,---,0.00,VWS V14.01,2013-08-14 21:23:00,
2013-08-14 17:28:00,80.9,75.6,29.90,West,261,0.0,10.0,84,0.00,,---,0.00,VWS V14.01,2013-08-14 21:28:00,
2013-08-14 17:30:00,80.8,75.9,29.90,West,261,3.0,10.0,85,0.00,,---,0.00,VWS V14.01,2013-08-14 21:30:00,
2013-08-14 17:33:00,80.5,76.3,29.91,WSW,252,2.0,4.0,87,0.00,,---,0.00,VWS V14.01,2013-08-14 21:33:00,
2013-08-14 17:39:00,80.2,76.0,29.91,West,267,3.0,5.0,87,0.01,,---,0.01,VWS V14.01,2013-08-14 21:39:00,
2013-08-14 17:44:00,80.0,76.5,29.90,West,262,2.0,5.0,89,0.01,,---,0.01,VWS V14.01,2013-08-14 21:44:00,
2013-08-14 17:49:00,80.0,76.1,29.90,West,262,0.0,5.0,88,0.01,,---,0.01,VWS V14.01,2013-08-14 21:49:00,
2013-08-14 17:54:00,80.1,75.9,29.90,West,262,1.0,5.0,87,0.01,,---,0.01,VWS V14.01,2013-08-14 21:54:00,
2013-08-14 17:59:00,80.3,75.7,29.90,WSW,252,0.0,5.0,86,0.01,,---,0.01,VWS V14.01,2013-08-14 21:59:00,
2013-08-14 18:00:00,80.3,75.7,29.90,WSW,248,0.0,5.0,86,0.01,,---,0.01,VWS V14.01,2013-08-14 22:00:00,
2013-08-14 18:04:00,80.4,76.2,29.91,WSW,240,0.0,4.0,87,0.01,,---,0.01,VWS V14.01,2013-08-14 22:04:00,
2013-08-14 18:09:00,80.4,76.2,29.91,SSW,205,1.0,5.0,87,0.01,,---,0.01,VWS V14.01,2013-08-14 22:09:00,
2013-08-14 18:14:00,80.4,76.2,29.91,South,174,5.0,6.0,87,0.01,,---,0.01,VWS V14.01,2013-08-14 22:14:00,
2013-08-14 18:19:00,80.4,76.2,29.91,SSE,166,2.0,6.0,87,0.01,,---,0.01,VWS V14.01,2013-08-14 22:19:00,
2013-08-14 18:24:00,80.4,76.9,29.91,South,169,5.0,6.0,89,0.01,,---,0.01,VWS V14.01,2013-08-14 22:24:00,
2013-08-14 18:29:00,80.3,76.1,29.91,SSE,165,4.0,9.0,87,0.01,,---,0.01,VWS V14.01,2013-08-14 22:29:00,
2013-08-14 18:30:00,80.3,76.1,29.91,SSE,165,3.0,9.0,87,0.01,,---,0.01,VWS V14.01,2013-08-14 22:30:00,
2013-08-14 18:34:00,80.2,76.3,29.92,SSE,148,4.0,9.0,88,0.01,,---,0.01,VWS V14.01,2013-08-14 22:34:00,
2013-08-14 18:39:00,80.2,76.3,29.92,South,169,5.0,9.0,88,0.01,,---,0.01,VWS V14.01,2013-08-14 22:39:00,
2013-08-14 18:45:00,80.1,76.2,29.92,SSE,148,5.0,9.0,88,0.01,,---,0.01,VWS V14.01,2013-08-14 22:45:00,
2013-08-14 18:50:00,79.8,75.6,29.93,South,174,0.0,9.0,87,0.01,,---,0.01,VWS V14.01,2013-08-14 22:50:00,
2013-08-14 18:55:00,79.7,75.8,29.92,SSW,197,4.0,9.0,88,0.01,,---,0.01,VWS V14.01,2013-08-14 22:55:00,
2013-08-14 19:00:00,79.7,75.8,29.92,SSE,165,2.0,4.0,88,0.00,,---,0.01,VWS V14.01,2013-08-14 23:00:00,
2013-08-14 19:05:00,79.7,75.8,29.92,South,186,1.0,4.0,88,0.00,,---,0.01,VWS V14.01,2013-08-14 23:05:00,
2013-08-14 19:10:00,79.8,76.3,29.93,SSW,200,1.0,4.0,89,0.00,,---,0.01,VWS V14.01,2013-08-14 23:10:00,
2013-08-14 19:15:00,79.8,76.3,29.93,South,184,8.0,8.0,89,0.02,,---,0.03,VWS V14.01,2013-08-14 23:15:00,
2013-08-14 19:20:00,79.0,75.8,29.93,SW,224,5.0,8.0,90,0.07,,---,0.08,VWS V14.01,2013-08-14 23:20:00,
2013-08-14 19:25:00,77.9,75.4,29.93,West,269,5.0,8.0,92,0.13,,---,0.14,VWS V14.01,2013-08-14 23:25:00,
2013-08-14 19:30:00,77.1,74.9,29.93,WSW,256,1.0,1.0,93,0.16,,---,0.17,VWS V14.01,2013-08-14 23:30:00,
2013-08-14 19:36:00,76.8,74.6,29.93,SW,225,2.0,2.0,93,0.17,,---,0.18,VWS V14.01,2013-08-14 23:36:00,
2013-08-14 19:41:00,77.1,75.2,29.93,SSW,213,4.0,4.0,94,0.17,,---,0.18,VWS V14.01,2013-08-14 23:41:00,
2013-08-14 19:46:00,77.5,75.3,29.93,SSE,150,0.0,5.0,93,0.17,,---,0.18,VWS V14.01,2013-08-14 23:46:00,
2013-08-14 19:51:00,77.8,75.6,29.93,SSE,153,1.0,5.0,93,0.17,,---,0.18,VWS V14.01,2013-08-14 23:51:00,
2013-08-14 19:56:00,78.1,75.9,29.93,SSE,153,0.0,5.0,93,0.17,,---,0.18,VWS V14.01,2013-08-14 23:56:00,
2013-08-14 20:00:00,78.2,76.0,29.93,SSE,153,0.0,5.0,93,0.17,,---,0.18,VWS V14.01,2013-08-15 00:00:00,
2013-08-14 20:01:00,78.2,76.0,29.93,SSE,153,0.0,0.0,93,0.17,,---,0.18,VWS V14.01,2013-08-15 00:01:00,
2013-08-14 20:06:00,78.2,76.0,29.93,SSE,153,0.0,0.0,93,0.17,,---,0.18,VWS V14.01,2013-08-15 00:06:00,
2013-08-14 20:11:00,78.2,76.0,29.93,SSE,153,0.0,0.0,93,0.17,,---,0.18,VWS V14.01,2013-08-15 00:11:00,
2013-08-14 20:16:00,78.1,76.2,29.93,SSE,153,0.0,0.0,94,0.17,,---,0.18,VWS V14.01,2013-08-15 00:16:00,
2013-08-14 20:21:00,78.1,76.6,29.93,SSE,153,0.0,0.0,95,0.17,,---,0.18,VWS V14.01,2013-08-15 00:21:00,
2013-08-14 20:26:00,78.1,76.6,29.93,SSE,153,0.0,3.0,95,0.17,,---,0.18,VWS V14.01,2013-08-15 00:26:00,
2013-08-14 20:30:00,78.0,76.5,29.94,SSE,153,0.0,3.0,95,0.17,,---,0.18,VWS V14.01,2013-08-15 00:30:00,
2013-08-14 20:31:00,78.0,76.5,29.94,SSE,153,0.0,0.0,95,0.01,,---,0.18,VWS V14.01,2013-08-15 00:31:00,
2013-08-14 20:36:00,78.0,76.8,29.94,SSE,153,0.0,1.0,96,0.01,,---,0.18,VWS V14.01,2013-08-15 00:36:00,
2013-08-14 20:41:00,78.0,76.8,29.95,SSE,153,0.0,1.0,96,0.01,,---,0.18,VWS V14.01,2013-08-15 00:41:00,
2013-08-14 20:46:00,77.8,76.6,29.94,SSE,153,1.0,1.0,96,0.01,,---,0.18,VWS V14.01,2013-08-15 00:46:00,
2013-08-14 20:51:00,77.6,76.4,29.94,SSE,153,0.0,3.0,96,0.01,,---,0.18,VWS V14.01,2013-08-15 00:51:00,
2013-08-14 20:56:00,77.6,76.1,29.94,SSE,153,0.0,3.0,95,0.01,,---,0.18,VWS V14.01,2013-08-15 00:56:00,
2013-08-14 21:00:00,77.7,76.2,29.94,SSE,153,0.0,3.0,95,0.01,,---,0.18,VWS V14.01,2013-08-15 01:00:00,
2013-08-14 21:01:00,77.7,76.2,29.94,SSE,153,0.0,0.0,95,0.00,,---,0.18,VWS V14.01,2013-08-15 01:01:00,
2013-08-14 21:06:00,77.7,76.2,29.94,SSE,153,0.0,0.0,95,0.00,,---,0.18,VWS V14.01,2013-08-15 01:06:00,
2013-08-14 21:11:00,77.7,76.2,29.94,SSE,153,0.0,0.0,95,0.00,,---,0.18,VWS V14.01,2013-08-15 01:11:00,
2013-08-14 21:17:00,77.9,76.0,29.95,SSE,153,0.0,4.0,94,0.00,,---,0.18,VWS V14.01,2013-08-15 01:17:00,
2013-08-14 21:22:00,78.3,76.4,29.95,SSE,153,0.0,4.0,94,0.00,,---,0.18,VWS V14.01,2013-08-15 01:22:00,
2013-08-14 21:27:00,78.4,76.5,29.95,SSE,153,0.0,4.0,94,0.00,,---,0.18,VWS V14.01,2013-08-15 01:27:00,
2013-08-14 21:30:00,78.5,76.6,29.95,SSE,153,0.0,4.0,94,0.00,,---,0.18,VWS V14.01,2013-08-15 01:30:00,
2013-08-14 21:32:00,78.5,76.6,29.95,SSE,153,0.0,0.0,94,0.00,,---,0.18,VWS V14.01,2013-08-15 01:32:00,
2013-08-14 21:37:00,78.5,76.6,29.96,SSE,153,0.0,1.0,94,0.00,,---,0.18,VWS V14.01,2013-08-15 01:37:00,
2013-08-14 21:42:00,78.5,76.6,29.96,SSE,153,1.0,1.0,94,0.00,,---,0.18,VWS V14.01,2013-08-15 01:42:00,
2013-08-14 21:47:00,78.5,76.3,29.96,SSE,153,1.0,2.0,93,0.00,,---,0.18,VWS V14.01,2013-08-15 01:47:00,
2013-08-14 21:52:00,78.6,76.4,29.96,SSE,153,0.0,3.0,93,0.00,,---,0.18,VWS V14.01,2013-08-15 01:52:00,
2013-08-14 21:57:00,78.7,76.5,29.97,SSE,153,0.0,3.0,93,0.00,,---,0.18,VWS V14.01,2013-08-15 01:57:00,
2013-08-14 22:00:00,78.7,76.5,29.97,SSE,153,0.0,3.0,93,0.00,,---,0.18,VWS V14.01,2013-08-15 02:00:00,
2013-08-14 22:02:00,78.7,76.5,29.97,SSE,153,1.0,1.0,93,0.00,,---,0.18,VWS V14.01,2013-08-15 02:02:00,
2013-08-14 22:07:00,78.5,76.3,29.97,SSE,153,0.0,1.0,93,0.00,,---,0.18,VWS V14.01,2013-08-15 02:07:00,
2013-08-14 22:12:00,78.3,76.1,29.97,SSE,153,0.0,1.0,93,0.00,,---,0.18,VWS V14.01,2013-08-15 02:12:00,
2013-08-14 22:17:00,78.1,76.2,29.97,SSE,153,0.0,1.0,94,0.00,,---,0.18,VWS V14.01,2013-08-15 02:17:00,
2013-08-14 22:23:00,77.9,76.0,29.97,SSE,153,0.0,1.0,94,0.00,,---,0.18,VWS V14.01,2013-08-15 02:23:00,
2013-08-14 22:28:00,77.7,75.8,29.97,SSE,153,0.0,1.0,94,0.00,,---,0.18,VWS V14.01,2013-08-15 02:28:00,
2013-08-14 22:30:00,77.7,75.8,29.97,SSE,153,0.0,1.0,94,0.00,,---,0.18,VWS V14.01,2013-08-15 02:30:00,
2013-08-14 22:33:00,77.6,76.1,29.97,SSE,153,1.0,2.0,95,0.00,,---,0.18,VWS V14.01,2013-08-15 02:33:00,
2013-08-14 22:38:00,77.6,76.4,29.98,South,185,1.0,4.0,96,0.00,,---,0.18,VWS V14.01,2013-08-15 02:38:00,
2013-08-14 22:43:00,77.7,76.5,29.98,SSW,192,1.0,4.0,96,0.00,,---,0.18,VWS V14.01,2013-08-15 02:43:00,
2013-08-14 22:48:00,77.7,76.2,29.98,SSW,192,2.0,4.0,95,0.00,,---,0.18,VWS V14.01,2013-08-15 02:48:00,
2013-08-14 22:53:00,77.7,76.2,29.98,SSW,192,1.0,4.0,95,0.00,,---,0.18,VWS V14.01,2013-08-15 02:53:00,
2013-08-14 22:58:00,77.6,76.1,29.98,SSW,192,0.0,4.0,95,0.00,,---,0.18,VWS V14.01,2013-08-15 02:58:00,
2013-08-14 23:00:00,77.6,76.1,29.98,SSW,192,0.0,4.0,95,0.00,,---,0.18,VWS V14.01,2013-08-15 03:00:00,
2013-08-14 23:03:00,77.6,76.1,29.98,SSW,192,0.0,1.0,95,0.00,,---,0.18,VWS V14.01,2013-08-15 03:03:00,
2013-08-14 23:08:00,77.5,76.0,29.98,SSW,192,0.0,1.0,95,0.00,,---,0.18,VWS V14.01,2013-08-15 03:08:00,
2013-08-14 23:13:00,77.5,76.0,29.98,SSW,192,0.0,1.0,95,0.00,,---,0.18,VWS V14.01,2013-08-15 03:13:00,
2013-08-14 23:18:00,77.6,76.4,29.98,SSW,192,0.0,1.0,96,0.00,,---,0.18,VWS V14.01,2013-08-15 03:18:00,
2013-08-14 23:23:00,77.5,76.0,29.99,SSW,192,0.0,1.0,95,0.00,,---,0.18,VWS V14.01,2013-08-15 03:23:00,
2013-08-14 23:28:00,77.6,76.1,29.98,SSW,192,0.0,2.0,95,0.00,,---,0.18,VWS V14.01,2013-08-15 03:28:00,
2013-08-14 23:30:00,77.6,76.1,29.98,SSW,192,1.0,2.0,95,0.00,,---,0.18,VWS V14.01,2013-08-15 03:30:00,
2013-08-14 23:33:00,77.6,76.1,29.99,SSW,192,0.0,1.0,95,0.00,,---,0.18,VWS V14.01,2013-08-15 03:33:00,
2013-08-14 23:38:00,77.6,76.1,29.99,SSW,192,1.0,1.0,95,0.00,,---,0.18,VWS V14.01,2013-08-15 03:38:00,
2013-08-14 23:43:00,77.6,75.7,29.99,SSW,192,0.0,2.0,94,0.00,,---,0.18,VWS V14.01,2013-08-15 03:43:00,
2013-08-14 23:48:00,77.8,75.9,29.99,SSW,192,1.0,2.0,94,0.00,,---,0.18,VWS V14.01,2013-08-15 03:48:00,
2013-08-14 23:54:00,77.9,76.0,29.99,SSW,192,0.0,2.0,94,0.00,,---,0.18,VWS V14.01,2013-08-15 03:54:00,
2013-08-14 23:59:00,77.8,75.9,29.99,SSW,192,0.0,2.0,94,0.00,,---,0.18,VWS V14.01,2013-08-15 03:59:00,